Thompson, Canada
Current Conditions -  °F | °C
As of 4:00 PM on Saturday 25 Oct 2014 (Local Time) from CYTH Reporting Station
Broken Clouds Broken Clouds  
Wind Chill: 30°   Ceiling: 2500
Heat Index: 39°   Visibility: 15mi
Dew Point: 30°   Wind: 20mph
Humidity: 70%   Direction: 280°W
Pressure: 29.78"   Gusts: 25mph
Location:  55.74°N, 97.85°W
Report Text: CYTH 252100Z 28017G22KT 15SM BKN025 BKN040 04/M01 A2978 RMKSC6SC2 SLP097
Loading
Personal Weather Stations






























Interactive Weather Map
Tropical Storm Tracking
New forecast layout! Learn more

10-Day Weather Forecast

Advertisements
Track Severe Weather on mobile